sensor_id;sensor_type;location;lat;lon;timestamp;temperature;humidity
70706;DHT22;59320;52.316;10.870;2023-06-10T00:02:08;17.30;87.20
70706;DHT22;59320;52.316;10.870;2023-06-10T00:04:36;17.40;86.50
70706;DHT22;59320;52.316;10.870;2023-06-10T00:07:03;17.40;85.90
70706;DHT22;59320;52.316;10.870;2023-06-10T00:09:34;17.40;85.50
70706;DHT22;59320;52.316;10.870;2023-06-10T00:12:02;17.40;85.50
70706;DHT22;59320;52.316;10.870;2023-06-10T00:14:31;17.30;85.10
70706;DHT22;59320;52.316;10.870;2023-06-10T00:16:58;17.30;84.30
70706;DHT22;59320;52.316;10.870;2023-06-10T00:19:25;17.40;84.10
70706;DHT22;59320;52.316;10.870;2023-06-10T00:21:55;17.30;83.50
70706;DHT22;59320;52.316;10.870;2023-06-10T00:24:23;17.20;84.10
70706;DHT22;59320;52.316;10.870;2023-06-10T00:26:50;17.10;85.10
70706;DHT22;59320;52.316;10.870;2023-06-10T00:29:17;17.10;86.40
70706;DHT22;59320;52.316;10.870;2023-06-10T00:31:45;16.90;87.50
70706;DHT22;59320;52.316;10.870;2023-06-10T00:34:13;16.80;87.50
70706;DHT22;59320;52.316;10.870;2023-06-10T00:36:40;16.80;88.00
70706;DHT22;59320;52.316;10.870;2023-06-10T00:39:07;16.70;90.00
70706;DHT22;59320;52.316;10.870;2023-06-10T00:41:36;16.50;90.00
70706;DHT22;59320;52.316;10.870;2023-06-10T00:44:03;16.50;90.10
70706;DHT22;59320;52.316;10.870;2023-06-10T00:46:30;16.50;90.10
70706;DHT22;59320;52.316;10.870;2023-06-10T00:49:00;16.40;90.80
70706;DHT22;59320;52.316;10.870;2023-06-10T00:51:27;16.40;91.60
70706;DHT22;59320;52.316;10.870;2023-06-10T00:53:55;16.20;91.80
70706;DHT22;59320;52.316;10.870;2023-06-10T00:56:22;16.20;92.20
70706;DHT22;59320;52.316;10.870;2023-06-10T00:58:49;16.10;92.40
70706;DHT22;59320;52.316;10.870;2023-06-10T01:01:17;16.00;92.70
70706;DHT22;59320;52.316;10.870;2023-06-10T01:03:46;16.00;93.20
70706;DHT22;59320;52.316;10.870;2023-06-10T01:06:31;15.90;94.20
70706;DHT22;59320;52.316;10.870;2023-06-10T01:09:10;15.80;94.00
70706;DHT22;59320;52.316;10.870;2023-06-10T01:11:43;15.90;94.10
70706;DHT22;59320;52.316;10.870;2023-06-10T01:14:13;15.90;93.70
70706;DHT22;59320;52.316;10.870;2023-06-10T01:16:41;15.90;93.70
70706;DHT22;59320;52.316;10.870;2023-06-10T01:19:09;16.00;93.70
70706;DHT22;59320;52.316;10.870;2023-06-10T01:21:40;15.90;94.20
70706;DHT22;59320;52.316;10.870;2023-06-10T01:24:07;15.80;94.30
70706;DHT22;59320;52.316;10.870;2023-06-10T01:26:37;15.70;94.90
70706;DHT22;59320;52.316;10.870;2023-06-10T01:29:10;15.60;95.10
70706;DHT22;59320;52.316;10.870;2023-06-10T01:31:42;15.60;95.10
70706;DHT22;59320;52.316;10.870;2023-06-10T01:34:14;15.60;95.10
70706;DHT22;59320;52.316;10.870;2023-06-10T01:36:47;15.60;94.80
70706;DHT22;59320;52.316;10.870;2023-06-10T01:39:15;15.60;95.10
70706;DHT22;59320;52.316;10.870;2023-06-10T01:41:43;15.60;94.70
70706;DHT22;59320;52.316;10.870;2023-06-10T01:44:10;15.60;94.70
70706;DHT22;59320;52.316;10.870;2023-06-10T01:46:39;15.60;94.40
70706;DHT22;59320;52.316;10.870;2023-06-10T01:49:06;15.60;94.50
70706;DHT22;59320;52.316;10.870;2023-06-10T01:51:33;15.60;94.60
70706;DHT22;59320;52.316;10.870;2023-06-10T01:54:02;15.50;94.70
70706;DHT22;59320;52.316;10.870;2023-06-10T01:56:29;15.40;95.40
70706;DHT22;59320;52.316;10.870;2023-06-10T01:58:56;15.30;95.30
70706;DHT22;59320;52.316;10.870;2023-06-10T02:01:25;15.30;95.30
70706;DHT22;59320;52.316;10.870;2023-06-10T02:03:52;15.30;95.30
70706;DHT22;59320;52.316;10.870;2023-06-10T02:06:19;15.40;95.30
70706;DHT22;59320;52.316;10.870;2023-06-10T02:08:46;15.40;94.70
70706;DHT22;59320;52.316;10.870;2023-06-10T02:11:15;15.40;94.70
70706;DHT22;59320;52.316;10.870;2023-06-10T02:13:42;15.40;95.00
70706;DHT22;59320;52.316;10.870;2023-06-10T02:16:09;15.30;95.40
70706;DHT22;59320;52.316;10.870;2023-06-10T02:18:38;15.20;96.10
70706;DHT22;59320;52.316;10.870;2023-06-10T02:21:08;15.10;95.80
70706;DHT22;59320;52.316;10.870;2023-06-10T02:23:36;15.20;95.30
70706;DHT22;59320;52.316;10.870;2023-06-10T02:26:03;15.20;95.40
70706;DHT22;59320;52.316;10.870;2023-06-10T02:28:32;15.30;95.20
70706;DHT22;59320;52.316;10.870;2023-06-10T02:30:59;15.20;95.00
70706;DHT22;59320;52.316;10.870;2023-06-10T02:33:27;15.30;94.70
70706;DHT22;59320;52.316;10.870;2023-06-10T02:35:54;15.30;95.00
70706;DHT22;59320;52.316;10.870;2023-06-10T02:38:22;15.30;95.20
70706;DHT22;59320;52.316;10.870;2023-06-10T02:40:49;15.20;95.40
70706;DHT22;59320;52.316;10.870;2023-06-10T02:43:16;15.10;95.60
70706;DHT22;59320;52.316;10.870;2023-06-10T02:45:45;15.10;95.70
70706;DHT22;59320;52.316;10.870;2023-06-10T02:48:13;15.00;95.90
70706;DHT22;59320;52.316;10.870;2023-06-10T02:50:40;15.00;96.10
70706;DHT22;59320;52.316;10.870;2023-06-10T02:53:17;14.90;96.20
70706;DHT22;59320;52.316;10.870;2023-06-10T02:55:49;15.00;95.90
70706;DHT22;59320;52.316;10.870;2023-06-10T02:58:18;15.10;95.60
70706;DHT22;59320;52.316;10.870;2023-06-10T03:00:47;15.20;95.20
70706;DHT22;59320;52.316;10.870;2023-06-10T03:03:14;15.20;95.10
70706;DHT22;59320;52.316;10.870;2023-06-10T03:05:55;15.10;95.60
70706;DHT22;59320;52.316;10.870;2023-06-10T03:08:23;15.00;96.20
70706;DHT22;59320;52.316;10.870;2023-06-10T03:10:51;14.90;96.30
70706;DHT22;59320;52.316;10.870;2023-06-10T03:13:19;14.90;96.20
70706;DHT22;59320;52.316;10.870;2023-06-10T03:15:48;14.90;96.60
70706;DHT22;59320;52.316;10.870;2023-06-10T03:18:18;14.90;96.60
70706;DHT22;59320;52.316;10.870;2023-06-10T03:20:46;14.80;96.90
70706;DHT22;59320;52.316;10.870;2023-06-10T03:23:14;14.90;96.70
70706;DHT22;59320;52.316;10.870;2023-06-10T03:25:42;14.80;96.20
70706;DHT22;59320;52.316;10.870;2023-06-10T03:28:13;14.80;96.90
70706;DHT22;59320;52.316;10.870;2023-06-10T03:30:40;14.70;97.20
70706;DHT22;59320;52.316;10.870;2023-06-10T03:33:09;14.60;97.40
70706;DHT22;59320;52.316;10.870;2023-06-10T03:35:37;14.70;97.50
70706;DHT22;59320;52.316;10.870;2023-06-10T03:38:05;14.70;97.00
70706;DHT22;59320;52.316;10.870;2023-06-10T03:40:32;14.90;96.80
70706;DHT22;59320;52.316;10.870;2023-06-10T03:43:00;14.90;96.90
70706;DHT22;59320;52.316;10.870;2023-06-10T03:45:28;14.80;97.40
70706;DHT22;59320;52.316;10.870;2023-06-10T03:47:56;14.80;97.10
70706;DHT22;59320;52.316;10.870;2023-06-10T03:50:31;14.80;97.90
70706;DHT22;59320;52.316;10.870;2023-06-10T03:52:58;14.60;98.40
70706;DHT22;59320;52.316;10.870;2023-06-10T03:55:26;14.60;98.30
70706;DHT22;59320;52.316;10.870;2023-06-10T03:57:54;14.60;98.50
70706;DHT22;59320;52.316;10.870;2023-06-10T04:00:21;14.60;98.50
70706;DHT22;59320;52.316;10.870;2023-06-10T04:02:49;14.70;98.40
70706;DHT22;59320;52.316;10.870;2023-06-10T04:05:26;14.90;97.80
70706;DHT22;59320;52.316;10.870;2023-06-10T04:07:55;15.10;97.50
70706;DHT22;59320;52.316;10.870;2023-06-10T04:10:23;15.20;97.60
70706;DHT22;59320;52.316;10.870;2023-06-10T04:12:50;15.20;97.70
70706;DHT22;59320;52.316;10.870;2023-06-10T04:15:18;15.10;98.00
70706;DHT22;59320;52.316;10.870;2023-06-10T04:17:45;15.00;98.10
70706;DHT22;59320;52.316;10.870;2023-06-10T04:20:14;15.00;98.20
70706;DHT22;59320;52.316;10.870;2023-06-10T04:22:44;15.00;98.10
70706;DHT22;59320;52.316;10.870;2023-06-10T04:25:13;15.00;98.20
70706;DHT22;59320;52.316;10.870;2023-06-10T04:27:41;15.10;98.20
70706;DHT22;59320;52.316;10.870;2023-06-10T04:30:09;15.20;97.90
70706;DHT22;59320;52.316;10.870;2023-06-10T04:32:37;15.20;97.80
70706;DHT22;59320;52.316;10.870;2023-06-10T04:35:10;15.30;97.90
70706;DHT22;59320;52.316;10.870;2023-06-10T04:37:38;15.20;98.00
70706;DHT22;59320;52.316;10.870;2023-06-10T04:40:06;15.10;98.00
70706;DHT22;59320;52.316;10.870;2023-06-10T04:42:35;15.20;98.20
70706;DHT22;59320;52.316;10.870;2023-06-10T04:45:03;15.20;98.20
70706;DHT22;59320;52.316;10.870;2023-06-10T04:47:30;15.10;98.50
70706;DHT22;59320;52.316;10.870;2023-06-10T04:49:59;15.10;98.60
70706;DHT22;59320;52.316;10.870;2023-06-10T04:52:26;15.10;98.50
70706;DHT22;59320;52.316;10.870;2023-06-10T04:54:54;15.30;98.40
70706;DHT22;59320;52.316;10.870;2023-06-10T04:57:21;15.30;98.20
70706;DHT22;59320;52.316;10.870;2023-06-10T04:59:49;15.50;97.80
70706;DHT22;59320;52.316;10.870;2023-06-10T05:02:16;15.60;97.70
70706;DHT22;59320;52.316;10.870;2023-06-10T05:04:43;15.60;97.70
70706;DHT22;59320;52.316;10.870;2023-06-10T05:07:10;15.70;97.50
70706;DHT22;59320;52.316;10.870;2023-06-10T05:09:37;15.80;97.30
70706;DHT22;59320;52.316;10.870;2023-06-10T05:12:05;15.80;97.20
70706;DHT22;59320;52.316;10.870;2023-06-10T05:14:32;15.90;97.40
70706;DHT22;59320;52.316;10.870;2023-06-10T05:17:01;15.80;97.70
70706;DHT22;59320;52.316;10.870;2023-06-10T05:19:28;15.80;97.60
70706;DHT22;59320;52.316;10.870;2023-06-10T05:21:55;15.80;97.60
70706;DHT22;59320;52.316;10.870;2023-06-10T05:24:22;15.90;97.50
70706;DHT22;59320;52.316;10.870;2023-06-10T05:26:49;15.80;97.60
70706;DHT22;59320;52.316;10.870;2023-06-10T05:29:16;15.80;97.60
70706;DHT22;59320;52.316;10.870;2023-06-10T05:31:43;15.90;97.40
70706;DHT22;59320;52.316;10.870;2023-06-10T05:34:12;16.10;97.10
70706;DHT22;59320;52.316;10.870;2023-06-10T05:36:39;16.30;96.80
70706;DHT22;59320;52.316;10.870;2023-06-10T05:39:06;16.40;96.80
70706;DHT22;59320;52.316;10.870;2023-06-10T05:41:33;16.40;96.70
70706;DHT22;59320;52.316;10.870;2023-06-10T05:44:00;16.40;96.40
70706;DHT22;59320;52.316;10.870;2023-06-10T05:46:27;16.60;96.20
70706;DHT22;59320;52.316;10.870;2023-06-10T05:48:54;16.70;96.00
70706;DHT22;59320;52.316;10.870;2023-06-10T05:51:22;16.70;96.00
70706;DHT22;59320;52.316;10.870;2023-06-10T05:53:49;16.70;96.30
70706;DHT22;59320;52.316;10.870;2023-06-10T05:56:16;16.90;95.70
70706;DHT22;59320;52.316;10.870;2023-06-10T05:58:43;16.90;95.70
70706;DHT22;59320;52.316;10.870;2023-06-10T06:01:10;16.90;95.60
70706;DHT22;59320;52.316;10.870;2023-06-10T06:03:37;17.10;95.40
70706;DHT22;59320;52.316;10.870;2023-06-10T06:06:05;17.20;95.30
70706;DHT22;59320;52.316;10.870;2023-06-10T06:08:33;17.20;95.30
70706;DHT22;59320;52.316;10.870;2023-06-10T06:11:00;17.20;95.30
70706;DHT22;59320;52.316;10.870;2023-06-10T06:13:27;17.30;94.90
70706;DHT22;59320;52.316;10.870;2023-06-10T06:15:54;17.20;95.00
70706;DHT22;59320;52.316;10.870;2023-06-10T06:18:21;17.10;95.30
70706;DHT22;59320;52.316;10.870;2023-06-10T06:20:50;17.10;95.10
70706;DHT22;59320;52.316;10.870;2023-06-10T06:23:17;17.10;95.30
70706;DHT22;59320;52.316;10.870;2023-06-10T06:25:45;17.00;95.40
70706;DHT22;59320;52.316;10.870;2023-06-10T06:28:12;17.00;95.50
70706;DHT22;59320;52.316;10.870;2023-06-10T06:30:39;17.10;95.60
70706;DHT22;59320;52.316;10.870;2023-06-10T06:33:06;17.10;95.50
70706;DHT22;59320;52.316;10.870;2023-06-10T06:35:33;17.20;95.40
70706;DHT22;59320;52.316;10.870;2023-06-10T06:38:00;17.30;95.20
70706;DHT22;59320;52.316;10.870;2023-06-10T06:40:30;17.30;95.20
70706;DHT22;59320;52.316;10.870;2023-06-10T06:42:58;17.40;95.00
70706;DHT22;59320;52.316;10.870;2023-06-10T06:45:43;17.60;94.80
70706;DHT22;59320;52.316;10.870;2023-06-10T06:48:10;17.60;94.80
70706;DHT22;59320;52.316;10.870;2023-06-10T06:50:37;17.70;94.90
70706;DHT22;59320;52.316;10.870;2023-06-10T06:53:07;17.80;94.70
70706;DHT22;59320;52.316;10.870;2023-06-10T06:55:34;18.10;94.50
70706;DHT22;59320;52.316;10.870;2023-06-10T06:58:02;18.20;93.90
70706;DHT22;59320;52.316;10.870;2023-06-10T07:00:30;18.20;94.00
70706;DHT22;59320;52.316;10.870;2023-06-10T07:02:57;18.20;93.70
70706;DHT22;59320;52.316;10.870;2023-06-10T07:05:25;18.10;93.80
70706;DHT22;59320;52.316;10.870;2023-06-10T07:07:53;18.20;93.80
70706;DHT22;59320;52.316;10.870;2023-06-10T07:10:21;18.30;93.70
70706;DHT22;59320;52.316;10.870;2023-06-10T07:12:48;18.50;93.50
70706;DHT22;59320;52.316;10.870;2023-06-10T07:15:16;18.50;93.50
70706;DHT22;59320;52.316;10.870;2023-06-10T07:17:44;18.60;93.40
70706;DHT22;59320;52.316;10.870;2023-06-10T07:20:11;18.80;93.00
70706;DHT22;59320;52.316;10.870;2023-06-10T07:22:41;19.00;92.60
70706;DHT22;59320;52.316;10.870;2023-06-10T07:25:08;19.00;92.50
70706;DHT22;59320;52.316;10.870;2023-06-10T07:27:35;18.90;92.40
70706;DHT22;59320;52.316;10.870;2023-06-10T07:30:04;18.80;92.90
70706;DHT22;59320;52.316;10.870;2023-06-10T07:32:34;19.10;92.70
70706;DHT22;59320;52.316;10.870;2023-06-10T07:35:01;19.30;92.30
70706;DHT22;59320;52.316;10.870;2023-06-10T07:37:28;19.40;91.90
70706;DHT22;59320;52.316;10.870;2023-06-10T07:39:56;19.60;92.00
70706;DHT22;59320;52.316;10.870;2023-06-10T07:42:24;19.70;91.70
70706;DHT22;59320;52.316;10.870;2023-06-10T07:44:51;20.00;91.30
70706;DHT22;59320;52.316;10.870;2023-06-10T07:47:18;20.20;91.00
70706;DHT22;59320;52.316;10.870;2023-06-10T07:49:48;20.40;90.50
70706;DHT22;59320;52.316;10.870;2023-06-10T07:52:15;20.30;90.70
70706;DHT22;59320;52.316;10.870;2023-06-10T07:54:42;20.30;90.80
70706;DHT22;59320;52.316;10.870;2023-06-10T07:57:10;20.50;90.30
70706;DHT22;59320;52.316;10.870;2023-06-10T07:59:38;20.50;90.20
70706;DHT22;59320;52.316;10.870;2023-06-10T08:02:05;20.60;90.30
70706;DHT22;59320;52.316;10.870;2023-06-10T08:04:33;20.70;90.00
70706;DHT22;59320;52.316;10.870;2023-06-10T08:07:03;21.00;89.50
70706;DHT22;59320;52.316;10.870;2023-06-10T08:09:30;21.20;88.60
70706;DHT22;59320;52.316;10.870;2023-06-10T08:11:58;21.50;88.40
70706;DHT22;59320;52.316;10.870;2023-06-10T08:14:25;21.70;87.10
70706;DHT22;59320;52.316;10.870;2023-06-10T08:16:52;21.80;85.80
70706;DHT22;59320;52.316;10.870;2023-06-10T08:19:19;21.80;86.70
70706;DHT22;59320;52.316;10.870;2023-06-10T08:21:47;22.10;85.90
70706;DHT22;59320;52.316;10.870;2023-06-10T08:24:15;22.10;85.20
70706;DHT22;59320;52.316;10.870;2023-06-10T08:26:44;22.10;85.00
70706;DHT22;59320;52.316;10.870;2023-06-10T08:29:12;22.30;85.50
70706;DHT22;59320;52.316;10.870;2023-06-10T08:31:41;22.60;84.90
70706;DHT22;59320;52.316;10.870;2023-06-10T08:34:08;22.70;83.80
70706;DHT22;59320;52.316;10.870;2023-06-10T08:36:36;23.00;82.40
70706;DHT22;59320;52.316;10.870;2023-06-10T08:39:03;22.80;83.20
70706;DHT22;59320;52.316;10.870;2023-06-10T08:41:35;23.00;82.50
70706;DHT22;59320;52.316;10.870;2023-06-10T08:44:08;23.20;82.70
70706;DHT22;59320;52.316;10.870;2023-06-10T08:46:36;23.70;81.10
70706;DHT22;59320;52.316;10.870;2023-06-10T08:49:06;23.90;79.30
70706;DHT22;59320;52.316;10.870;2023-06-10T08:51:35;24.00;78.90
70706;DHT22;59320;52.316;10.870;2023-06-10T08:54:09;23.90;78.00
70706;DHT22;59320;52.316;10.870;2023-06-10T08:56:40;23.80;78.20
70706;DHT22;59320;52.316;10.870;2023-06-10T08:59:09;23.50;79.00
70706;DHT22;59320;52.316;10.870;2023-06-10T09:01:37;23.50;79.90
70706;DHT22;59320;52.316;10.870;2023-06-10T09:04:05;23.80;79.30
70706;DHT22;59320;52.316;10.870;2023-06-10T09:06:33;23.80;78.70
70706;DHT22;59320;52.316;10.870;2023-06-10T09:09:02;23.90;79.30
70706;DHT22;59320;52.316;10.870;2023-06-10T09:11:29;24.10;78.90
70706;DHT22;59320;52.316;10.870;2023-06-10T09:13:58;23.80;78.20
70706;DHT22;59320;52.316;10.870;2023-06-10T09:16:25;23.70;78.90
70706;DHT22;59320;52.316;10.870;2023-06-10T09:18:53;23.70;79.20
70706;DHT22;59320;52.316;10.870;2023-06-10T09:21:22;23.80;78.80
70706;DHT22;59320;52.316;10.870;2023-06-10T09:23:51;23.90;78.80
70706;DHT22;59320;52.316;10.870;2023-06-10T09:26:18;23.90;79.20
70706;DHT22;59320;52.316;10.870;2023-06-10T09:28:48;24.00;79.00
70706;DHT22;59320;52.316;10.870;2023-06-10T09:31:17;24.10;78.50
70706;DHT22;59320;52.316;10.870;2023-06-10T09:33:47;24.20;77.90
70706;DHT22;59320;52.316;10.870;2023-06-10T09:36:21;24.30;77.40
70706;DHT22;59320;52.316;10.870;2023-06-10T09:38:50;24.50;76.80
70706;DHT22;59320;52.316;10.870;2023-06-10T09:41:17;24.60;76.60
70706;DHT22;59320;52.316;10.870;2023-06-10T09:43:45;24.60;76.60
70706;DHT22;59320;52.316;10.870;2023-06-10T09:46:17;24.70;76.10
70706;DHT22;59320;52.316;10.870;2023-06-10T09:48:45;24.80;75.90
70706;DHT22;59320;52.316;10.870;2023-06-10T09:51:13;25.00;75.20
70706;DHT22;59320;52.316;10.870;2023-06-10T09:53:40;25.00;75.30
70706;DHT22;59320;52.316;10.870;2023-06-10T09:56:07;25.00;74.60
70706;DHT22;59320;52.316;10.870;2023-06-10T09:58:36;24.80;74.80
70706;DHT22;59320;52.316;10.870;2023-06-10T10:01:07;24.70;75.10
70706;DHT22;59320;52.316;10.870;2023-06-10T10:03:44;24.70;75.50
70706;DHT22;59320;52.316;10.870;2023-06-10T10:06:13;24.80;75.10
70706;DHT22;59320;52.316;10.870;2023-06-10T10:08:41;24.90;75.50
70706;DHT22;59320;52.316;10.870;2023-06-10T10:11:09;25.20;74.50
70706;DHT22;59320;52.316;10.870;2023-06-10T10:13:38;25.50;74.40
70706;DHT22;59320;52.316;10.870;2023-06-10T10:16:10;25.60;73.50
70706;DHT22;59320;52.316;10.870;2023-06-10T10:18:41;25.70;72.80
70706;DHT22;59320;52.316;10.870;2023-06-10T10:21:13;25.80;72.10
70706;DHT22;59320;52.316;10.870;2023-06-10T10:23:48;25.80;72.10
70706;DHT22;59320;52.316;10.870;2023-06-10T10:26:17;25.90;71.20
70706;DHT22;59320;52.316;10.870;2023-06-10T10:28:51;26.00;71.50
70706;DHT22;59320;52.316;10.870;2023-06-10T10:31:21;26.00;71.10
70706;DHT22;59320;52.316;10.870;2023-06-10T10:33:55;26.10;71.70
70706;DHT22;59320;52.316;10.870;2023-06-10T10:36:26;26.20;70.30
70706;DHT22;59320;52.316;10.870;2023-06-10T10:38:54;26.10;70.00
70706;DHT22;59320;52.316;10.870;2023-06-10T10:41:24;26.10;70.60
70706;DHT22;59320;52.316;10.870;2023-06-10T10:43:53;26.30;70.50
70706;DHT22;59320;52.316;10.870;2023-06-10T10:46:20;26.30;69.40
70706;DHT22;59320;52.316;10.870;2023-06-10T10:48:52;26.40;68.30
70706;DHT22;59320;52.316;10.870;2023-06-10T10:51:20;26.30;68.20
70706;DHT22;59320;52.316;10.870;2023-06-10T10:54:11;26.60;68.00
70706;DHT22;59320;52.316;10.870;2023-06-10T10:56:39;26.70;66.80
70706;DHT22;59320;52.316;10.870;2023-06-10T10:59:43;26.90;65.60
70706;DHT22;59320;52.316;10.870;2023-06-10T11:02:11;26.70;66.20
70706;DHT22;59320;52.316;10.870;2023-06-10T11:04:46;26.80;66.70
70706;DHT22;59320;52.316;10.870;2023-06-10T11:07:13;27.20;66.40
70706;DHT22;59320;52.316;10.870;2023-06-10T11:09:57;27.50;65.60
70706;DHT22;59320;52.316;10.870;2023-06-10T11:12:30;27.80;64.30
70706;DHT22;59320;52.316;10.870;2023-06-10T11:15:06;28.20;63.10
70706;DHT22;59320;52.316;10.870;2023-06-10T11:17:34;28.40;62.30
70706;DHT22;59320;52.316;10.870;2023-06-10T11:20:01;28.30;60.40
70706;DHT22;59320;52.316;10.870;2023-06-10T11:22:28;28.30;61.60
70706;DHT22;59320;52.316;10.870;2023-06-10T11:24:57;28.60;61.90
70706;DHT22;59320;52.316;10.870;2023-06-10T11:27:25;29.10;60.50
70706;DHT22;59320;52.316;10.870;2023-06-10T11:30:18;29.40;59.10
70706;DHT22;59320;52.316;10.870;2023-06-10T11:32:50;29.60;57.90
70706;DHT22;59320;52.316;10.870;2023-06-10T11:35:19;29.70;57.10
70706;DHT22;59320;52.316;10.870;2023-06-10T11:37:47;29.60;57.40
70706;DHT22;59320;52.316;10.870;2023-06-10T11:40:16;29.80;57.70
70706;DHT22;59320;52.316;10.870;2023-06-10T11:42:44;30.10;57.10
70706;DHT22;59320;52.316;10.870;2023-06-10T11:45:15;30.50;56.80
70706;DHT22;59320;52.316;10.870;2023-06-10T11:47:56;30.80;54.90
70706;DHT22;59320;52.316;10.870;2023-06-10T11:50:31;30.70;54.90
70706;DHT22;59320;52.316;10.870;2023-06-10T11:52:58;30.80;54.90
70706;DHT22;59320;52.316;10.870;2023-06-10T11:55:41;31.10;54.60
70706;DHT22;59320;52.316;10.870;2023-06-10T11:58:13;31.60;53.70
70706;DHT22;59320;52.316;10.870;2023-06-10T12:00:44;31.50;51.70
70706;DHT22;59320;52.316;10.870;2023-06-10T12:03:12;31.30;52.50
70706;DHT22;59320;52.316;10.870;2023-06-10T12:05:39;31.50;52.90
70706;DHT22;59320;52.316;10.870;2023-06-10T12:08:11;31.70;52.40
70706;DHT22;59320;52.316;10.870;2023-06-10T12:10:43;31.80;52.10
70706;DHT22;59320;52.316;10.870;2023-06-10T12:13:10;31.80;51.00
70706;DHT22;59320;52.316;10.870;2023-06-10T12:15:38;31.80;51.90
70706;DHT22;59320;52.316;10.870;2023-06-10T12:18:05;32.00;50.70
70706;DHT22;59320;52.316;10.870;2023-06-10T12:20:33;32.00;50.90
70706;DHT22;59320;52.316;10.870;2023-06-10T12:23:08;32.40;51.10
70706;DHT22;59320;52.316;10.870;2023-06-10T12:25:35;32.60;50.80
70706;DHT22;59320;52.316;10.870;2023-06-10T12:28:05;32.90;49.90
70706;DHT22;59320;52.316;10.870;2023-06-10T12:30:32;32.80;48.60
70706;DHT22;59320;52.316;10.870;2023-06-10T12:33:00;31.90;49.60
70706;DHT22;59320;52.316;10.870;2023-06-10T12:35:27;31.70;50.50
70706;DHT22;59320;52.316;10.870;2023-06-10T12:37:55;31.90;50.40
70706;DHT22;59320;52.316;10.870;2023-06-10T12:40:26;32.30;49.80
70706;DHT22;59320;52.316;10.870;2023-06-10T12:42:54;32.60;49.00
70706;DHT22;59320;52.316;10.870;2023-06-10T12:45:28;32.80;49.10
70706;DHT22;59320;52.316;10.870;2023-06-10T12:48:04;33.20;48.30
70706;DHT22;59320;52.316;10.870;2023-06-10T12:50:33;33.20;46.10
70706;DHT22;59320;52.316;10.870;2023-06-10T12:53:00;33.40;46.70
70706;DHT22;59320;52.316;10.870;2023-06-10T12:55:27;33.60;45.90
70706;DHT22;59320;52.316;10.870;2023-06-10T12:57:55;33.50;46.50
70706;DHT22;59320;52.316;10.870;2023-06-10T13:00:23;33.50;46.00
70706;DHT22;59320;52.316;10.870;2023-06-10T13:02:53;33.40;46.00
70706;DHT22;59320;52.316;10.870;2023-06-10T13:05:20;32.90;45.50
70706;DHT22;59320;52.316;10.870;2023-06-10T13:07:47;32.30;46.70
70706;DHT22;59320;52.316;10.870;2023-06-10T13:10:15;32.10;47.40
70706;DHT22;59320;52.316;10.870;2023-06-10T13:12:42;32.40;47.60
70706;DHT22;59320;52.316;10.870;2023-06-10T13:15:10;32.80;46.40
70706;DHT22;59320;52.316;10.870;2023-06-10T13:17:37;32.70;46.40
70706;DHT22;59320;52.316;10.870;2023-06-10T13:20:07;32.80;46.30
70706;DHT22;59320;52.316;10.870;2023-06-10T13:22:34;33.10;45.30
70706;DHT22;59320;52.316;10.870;2023-06-10T13:25:02;33.30;45.10
70706;DHT22;59320;52.316;10.870;2023-06-10T13:27:30;33.40;44.40
70706;DHT22;59320;52.316;10.870;2023-06-10T13:29:57;33.40;44.30
70706;DHT22;59320;52.316;10.870;2023-06-10T13:32:24;33.40;43.00
70706;DHT22;59320;52.316;10.870;2023-06-10T13:34:51;33.20;42.30
70706;DHT22;59320;52.316;10.870;2023-06-10T13:37:20;33.20;42.40
70706;DHT22;59320;52.316;10.870;2023-06-10T13:39:47;33.10;41.80
70706;DHT22;59320;52.316;10.870;2023-06-10T13:42:16;32.90;42.30
70706;DHT22;59320;52.316;10.870;2023-06-10T13:44:43;32.90;41.70
70706;DHT22;59320;52.316;10.870;2023-06-10T13:47:10;33.00;41.80
70706;DHT22;59320;52.316;10.870;2023-06-10T13:49:37;33.20;41.40
70706;DHT22;59320;52.316;10.870;2023-06-10T13:52:05;33.10;41.80
70706;DHT22;59320;52.316;10.870;2023-06-10T13:54:34;33.20;42.10
70706;DHT22;59320;52.316;10.870;2023-06-10T13:57:02;33.40;41.20
70706;DHT22;59320;52.316;10.870;2023-06-10T13:59:29;33.40;41.40
70706;DHT22;59320;52.316;10.870;2023-06-10T14:01:56;33.00;41.80
70706;DHT22;59320;52.316;10.870;2023-06-10T14:04:24;32.40;42.60
70706;DHT22;59320;52.316;10.870;2023-06-10T14:06:51;32.10;43.70
70706;DHT22;59320;52.316;10.870;2023-06-10T14:09:18;32.40;43.80
70706;DHT22;59320;52.316;10.870;2023-06-10T14:11:46;32.80;42.90
70706;DHT22;59320;52.316;10.870;2023-06-10T14:14:14;33.10;42.70
70706;DHT22;59320;52.316;10.870;2023-06-10T14:16:41;33.40;41.70
70706;DHT22;59320;52.316;10.870;2023-06-10T14:19:08;33.40;40.50
70706;DHT22;59320;52.316;10.870;2023-06-10T14:21:35;33.50;41.10
70706;DHT22;59320;52.316;10.870;2023-06-10T14:24:02;33.80;41.70
70706;DHT22;59320;52.316;10.870;2023-06-10T14:26:30;33.70;39.80
70706;DHT22;59320;52.316;10.870;2023-06-10T14:28:59;33.50;41.30
70706;DHT22;59320;52.316;10.870;2023-06-10T14:31:28;33.40;41.30
70706;DHT22;59320;52.316;10.870;2023-06-10T14:33:55;33.10;40.80
70706;DHT22;59320;52.316;10.870;2023-06-10T14:36:22;32.50;42.10
70706;DHT22;59320;52.316;10.870;2023-06-10T14:38:49;32.10;42.70
70706;DHT22;59320;52.316;10.870;2023-06-10T14:41:16;32.40;42.10
70706;DHT22;59320;52.316;10.870;2023-06-10T14:43:43;32.80;41.60
70706;DHT22;59320;52.316;10.870;2023-06-10T14:46:12;33.20;41.40
70706;DHT22;59320;52.316;10.870;2023-06-10T14:48:39;33.40;40.00
70706;DHT22;59320;52.316;10.870;2023-06-10T14:51:06;33.50;40.30
70706;DHT22;59320;52.316;10.870;2023-06-10T14:53:33;33.80;40.20
70706;DHT22;59320;52.316;10.870;2023-06-10T14:56:00;34.20;38.80
70706;DHT22;59320;52.316;10.870;2023-06-10T14:58:27;34.10;38.70
70706;DHT22;59320;52.316;10.870;2023-06-10T15:00:54;34.00;38.80
70706;DHT22;59320;52.316;10.870;2023-06-10T15:03:23;33.90;38.10
70706;DHT22;59320;52.316;10.870;2023-06-10T15:05:50;33.80;38.90
70706;DHT22;59320;52.316;10.870;2023-06-10T15:08:18;33.60;40.50
70706;DHT22;59320;52.316;10.870;2023-06-10T15:10:45;33.20;41.50
70706;DHT22;59320;52.316;10.870;2023-06-10T15:13:13;32.50;44.70
70706;DHT22;59320;52.316;10.870;2023-06-10T15:15:40;32.00;45.50
70706;DHT22;59320;52.316;10.870;2023-06-10T15:18:07;31.60;46.40
70706;DHT22;59320;52.316;10.870;2023-06-10T15:20:36;31.20;44.40
70706;DHT22;59320;52.316;10.870;2023-06-10T15:23:03;30.80;43.20
70706;DHT22;59320;52.316;10.870;2023-06-10T15:25:30;30.40;43.50